Airfield :
LOGIN :

Register | Disclaimer

   EN    FR    IT 

 










Legend :    VFR   Marginal VFR   IFR   Intensive IFR   Very Intensive IFR
Visi :
Ceiling :
>= 8 km
>= 3000ft
5 to 8 km
1000 to 3000 ft
1500m to 5 km
500 to 1000 ft
800 to 1500m
200 to 500 ft
< 800m
< 200 ft
Symbols :   Thunderstorms  Fog  Heavy snow  Heavy precipitations  Wind > 20 kt
SIGMETs :     Misc.  Thunderstorms  Icing  Turbulence  Mountain Waves  Volcanic Ashes







- Airport Elevation : 913 ft
- Download approach charts


LFSX - Luxeuil

CURRENT METAR :
  • 181200Z AUTO 23004KT 9999 FEW014 OVC030 06/03 Q1025

EXPIRED METARs :
  • 181130Z AUTO VRB03KT 9999 BKN015 BKN022 OVC030 05/02 Q1025
  • 181100Z AUTO 24002KT 9999 SCT015 BKN023 OVC028 05/02 Q1025
  • 181030Z AUTO 00000KT 9999 SCT016 OVC027 05/02 Q1025
  • 181000Z AUTO 18002KT 9999 SCT017 OVC024 05/02 Q1025
  • 180930Z AUTO 15002KT 9999 OVC025 05/02 Q1025

TAF TAF LFSX
Valid from the 17 at 15:00 until the 18 at 15:00 UTC


171400Z 1715/1815 14005KT CAVOK
BECMG 1719/1722 3000 BR BKN007
PROB40
TEMPO 1721/1807 0400 FG OVC003
BECMG 1809/1812 9999 BKN025
No reported NOTAMs for that airfield.



MET'MAP, your aeronautical weather chart ! - Copyright ORBIFLY December 2007 - Disclaimer

ORBIFLY MET'MAP TEAM :

Programming & Development : Alexandra Zaïnal
Concept & Development : Baudouin d'Aumeries
Co-Development & Prog : Marc-Olivier Méhu
Technical & hardware support : Manuel Goepfert

Contact : metmap@orbifly.com




SOURCES & CREDITS :

   NOAA